sensor_id;sensor_type;location;lat;lon;timestamp;P1;durP1;ratioP1;P2;durP2;ratioP2
6983;SDS011;3532;51.118;7.210;2023-10-31T00:00:12;2.60;;;2.40;;
6983;SDS011;3532;51.118;7.210;2023-10-31T00:02:37;3.13;;;2.93;;
6983;SDS011;3532;51.118;7.210;2023-10-31T00:05:03;3.33;;;3.10;;
6983;SDS011;3532;51.118;7.210;2023-10-31T00:07:29;3.23;;;2.93;;
6983;SDS011;3532;51.118;7.210;2023-10-31T00:09:54;3.23;;;2.87;;
6983;SDS011;3532;51.118;7.210;2023-10-31T00:12:20;3.63;;;3.33;;
6983;SDS011;3532;51.118;7.210;2023-10-31T00:14:45;3.00;;;2.80;;
6983;SDS011;3532;51.118;7.210;2023-10-31T00:17:10;4.30;;;4.00;;
6983;SDS011;3532;51.118;7.210;2023-10-31T00:19:36;4.10;;;3.80;;
6983;SDS011;3532;51.118;7.210;2023-10-31T00:22:01;4.87;;;4.10;;
6983;SDS011;3532;51.118;7.210;2023-10-31T00:24:26;4.60;;;4.17;;
6983;SDS011;3532;51.118;7.210;2023-10-31T00:26:52;4.43;;;4.10;;
6983;SDS011;3532;51.118;7.210;2023-10-31T00:29:17;3.93;;;3.63;;
6983;SDS011;3532;51.118;7.210;2023-10-31T00:31:42;4.00;;;3.70;;
6983;SDS011;3532;51.118;7.210;2023-10-31T00:34:08;4.60;;;4.13;;
6983;SDS011;3532;51.118;7.210;2023-10-31T00:36:33;3.90;;;3.60;;
6983;SDS011;3532;51.118;7.210;2023-10-31T00:38:59;3.40;;;3.10;;
6983;SDS011;3532;51.118;7.210;2023-10-31T00:41:24;4.13;;;3.73;;
6983;SDS011;3532;51.118;7.210;2023-10-31T00:43:49;3.83;;;3.53;;
6983;SDS011;3532;51.118;7.210;2023-10-31T00:46:15;4.30;;;3.97;;
6983;SDS011;3532;51.118;7.210;2023-10-31T00:48:40;4.50;;;4.10;;
6983;SDS011;3532;51.118;7.210;2023-10-31T00:51:05;5.43;;;4.27;;
6983;SDS011;3532;51.118;7.210;2023-10-31T00:53:31;4.03;;;3.73;;
6983;SDS011;3532;51.118;7.210;2023-10-31T00:55:56;5.97;;;4.30;;
6983;SDS011;3532;51.118;7.210;2023-10-31T00:58:22;3.97;;;3.67;;
6983;SDS011;3532;51.118;7.210;2023-10-31T01:00:47;3.63;;;3.33;;
6983;SDS011;3532;51.118;7.210;2023-10-31T01:03:13;4.07;;;3.77;;
6983;SDS011;3532;51.118;7.210;2023-10-31T01:05:38;4.03;;;3.73;;
6983;SDS011;3532;51.118;7.210;2023-10-31T01:08:03;3.80;;;3.50;;
6983;SDS011;3532;51.118;7.210;2023-10-31T01:10:29;4.67;;;4.20;;
6983;SDS011;3532;51.118;7.210;2023-10-31T01:12:54;4.57;;;4.17;;
6983;SDS011;3532;51.118;7.210;2023-10-31T01:15:19;3.87;;;3.57;;
6983;SDS011;3532;51.118;7.210;2023-10-31T01:17:45;4.37;;;4.07;;
6983;SDS011;3532;51.118;7.210;2023-10-31T01:20:10;4.53;;;4.00;;
6983;SDS011;3532;51.118;7.210;2023-10-31T01:22:36;4.40;;;4.00;;
6983;SDS011;3532;51.118;7.210;2023-10-31T01:25:02;5.00;;;4.57;;
6983;SDS011;3532;51.118;7.210;2023-10-31T01:27:27;4.90;;;4.50;;
6983;SDS011;3532;51.118;7.210;2023-10-31T01:29:53;5.53;;;5.03;;
6983;SDS011;3532;51.118;7.210;2023-10-31T01:32:18;5.27;;;4.87;;
6983;SDS011;3532;51.118;7.210;2023-10-31T01:34:43;5.37;;;4.83;;
6983;SDS011;3532;51.118;7.210;2023-10-31T01:37:09;4.70;;;4.33;;
6983;SDS011;3532;51.118;7.210;2023-10-31T01:39:35;5.67;;;5.17;;
6983;SDS011;3532;51.118;7.210;2023-10-31T01:42:01;5.43;;;4.93;;
6983;SDS011;3532;51.118;7.210;2023-10-31T01:44:26;6.87;;;6.27;;
6983;SDS011;3532;51.118;7.210;2023-10-31T01:46:51;6.53;;;5.10;;
6983;SDS011;3532;51.118;7.210;2023-10-31T01:49:17;5.23;;;4.83;;
6983;SDS011;3532;51.118;7.210;2023-10-31T01:51:42;4.30;;;3.90;;
6983;SDS011;3532;51.118;7.210;2023-10-31T01:54:08;3.93;;;3.63;;
6983;SDS011;3532;51.118;7.210;2023-10-31T01:56:34;5.23;;;4.07;;
6983;SDS011;3532;51.118;7.210;2023-10-31T01:58:59;4.53;;;3.90;;
6983;SDS011;3532;51.118;7.210;2023-10-31T02:01:25;3.83;;;3.53;;
6983;SDS011;3532;51.118;7.210;2023-10-31T02:03:50;4.60;;;3.90;;
6983;SDS011;3532;51.118;7.210;2023-10-31T02:06:16;5.80;;;4.03;;
6983;SDS011;3532;51.118;7.210;2023-10-31T02:08:41;4.97;;;3.23;;
6983;SDS011;3532;51.118;7.210;2023-10-31T02:11:06;9.03;;;3.80;;
6983;SDS011;3532;51.118;7.210;2023-10-31T02:13:35;4.47;;;3.50;;
6983;SDS011;3532;51.118;7.210;2023-10-31T02:16:00;3.93;;;3.57;;
6983;SDS011;3532;51.118;7.210;2023-10-31T02:18:26;4.90;;;3.40;;
6983;SDS011;3532;51.118;7.210;2023-10-31T02:20:52;4.77;;;3.37;;
6983;SDS011;3532;51.118;7.210;2023-10-31T02:23:17;4.00;;;3.30;;
6983;SDS011;3532;51.118;7.210;2023-10-31T02:25:42;6.70;;;4.03;;
6983;SDS011;3532;51.118;7.210;2023-10-31T02:28:08;3.80;;;3.47;;
6983;SDS011;3532;51.118;7.210;2023-10-31T02:30:33;4.87;;;3.80;;
6983;SDS011;3532;51.118;7.210;2023-10-31T02:33:00;4.63;;;3.73;;
6983;SDS011;3532;51.118;7.210;2023-10-31T02:35:26;3.70;;;3.07;;
6983;SDS011;3532;51.118;7.210;2023-10-31T02:37:51;5.67;;;3.57;;
6983;SDS011;3532;51.118;7.210;2023-10-31T02:40:17;6.97;;;4.33;;
6983;SDS011;3532;51.118;7.210;2023-10-31T02:42:42;5.50;;;4.53;;
6983;SDS011;3532;51.118;7.210;2023-10-31T02:45:07;4.60;;;4.10;;
6983;SDS011;3532;51.118;7.210;2023-10-31T02:47:33;7.60;;;3.97;;
6983;SDS011;3532;51.118;7.210;2023-10-31T02:49:58;4.73;;;4.07;;
6983;SDS011;3532;51.118;7.210;2023-10-31T02:52:23;7.03;;;4.83;;
6983;SDS011;3532;51.118;7.210;2023-10-31T02:54:49;5.27;;;4.73;;
6983;SDS011;3532;51.118;7.210;2023-10-31T02:57:15;8.50;;;4.67;;
6983;SDS011;3532;51.118;7.210;2023-10-31T02:59:41;5.43;;;4.80;;
6983;SDS011;3532;51.118;7.210;2023-10-31T03:02:06;4.83;;;4.30;;
6983;SDS011;3532;51.118;7.210;2023-10-31T03:04:31;5.13;;;4.17;;
6983;SDS011;3532;51.118;7.210;2023-10-31T03:06:56;6.43;;;4.37;;
6983;SDS011;3532;51.118;7.210;2023-10-31T03:09:22;4.80;;;4.27;;
6983;SDS011;3532;51.118;7.210;2023-10-31T03:11:47;4.90;;;4.33;;
6983;SDS011;3532;51.118;7.210;2023-10-31T03:14:12;6.77;;;4.50;;
6983;SDS011;3532;51.118;7.210;2023-10-31T03:16:38;4.83;;;4.43;;
6983;SDS011;3532;51.118;7.210;2023-10-31T03:19:04;6.97;;;4.07;;
6983;SDS011;3532;51.118;7.210;2023-10-31T03:21:29;5.40;;;3.70;;
6983;SDS011;3532;51.118;7.210;2023-10-31T03:23:55;6.93;;;3.80;;
6983;SDS011;3532;51.118;7.210;2023-10-31T03:26:23;4.77;;;3.43;;
6983;SDS011;3532;51.118;7.210;2023-10-31T03:28:48;5.23;;;3.93;;
6983;SDS011;3532;51.118;7.210;2023-10-31T03:31:14;5.10;;;4.27;;
6983;SDS011;3532;51.118;7.210;2023-10-31T03:33:40;4.90;;;4.40;;
6983;SDS011;3532;51.118;7.210;2023-10-31T03:36:06;5.63;;;3.30;;
6983;SDS011;3532;51.118;7.210;2023-10-31T03:38:33;6.33;;;3.57;;
6983;SDS011;3532;51.118;7.210;2023-10-31T03:40:58;5.77;;;4.37;;
6983;SDS011;3532;51.118;7.210;2023-10-31T03:43:24;4.90;;;3.70;;
6983;SDS011;3532;51.118;7.210;2023-10-31T03:45:49;5.03;;;3.50;;
6983;SDS011;3532;51.118;7.210;2023-10-31T03:48:15;3.47;;;3.17;;
6983;SDS011;3532;51.118;7.210;2023-10-31T03:50:41;4.70;;;3.80;;
6983;SDS011;3532;51.118;7.210;2023-10-31T03:53:07;4.87;;;3.37;;
6983;SDS011;3532;51.118;7.210;2023-10-31T03:55:33;5.30;;;4.80;;
6983;SDS011;3532;51.118;7.210;2023-10-31T03:57:58;7.90;;;4.00;;
6983;SDS011;3532;51.118;7.210;2023-10-31T04:00:23;4.23;;;3.37;;
6983;SDS011;3532;51.118;7.210;2023-10-31T04:02:49;4.70;;;3.60;;
6983;SDS011;3532;51.118;7.210;2023-10-31T04:05:14;5.17;;;3.63;;
6983;SDS011;3532;51.118;7.210;2023-10-31T04:07:39;4.67;;;3.70;;
6983;SDS011;3532;51.118;7.210;2023-10-31T04:10:05;6.00;;;3.90;;
6983;SDS011;3532;51.118;7.210;2023-10-31T04:12:30;5.00;;;3.93;;
6983;SDS011;3532;51.118;7.210;2023-10-31T04:14:56;4.20;;;3.80;;
6983;SDS011;3532;51.118;7.210;2023-10-31T04:17:21;5.53;;;3.87;;
6983;SDS011;3532;51.118;7.210;2023-10-31T04:19:47;3.83;;;3.23;;
6983;SDS011;3532;51.118;7.210;2023-10-31T04:22:12;5.40;;;4.00;;
6983;SDS011;3532;51.118;7.210;2023-10-31T04:24:37;4.47;;;3.70;;
6983;SDS011;3532;51.118;7.210;2023-10-31T04:27:03;4.13;;;3.17;;
6983;SDS011;3532;51.118;7.210;2023-10-31T04:29:28;3.80;;;3.40;;
6983;SDS011;3532;51.118;7.210;2023-10-31T04:31:53;3.50;;;3.20;;
6983;SDS011;3532;51.118;7.210;2023-10-31T04:34:19;3.93;;;3.10;;
6983;SDS011;3532;51.118;7.210;2023-10-31T04:36:44;3.60;;;3.30;;
6983;SDS011;3532;51.118;7.210;2023-10-31T04:39:09;4.00;;;2.80;;
6983;SDS011;3532;51.118;7.210;2023-10-31T04:41:35;5.07;;;3.43;;
6983;SDS011;3532;51.118;7.210;2023-10-31T04:44:00;2.70;;;2.47;;
6983;SDS011;3532;51.118;7.210;2023-10-31T04:46:25;3.47;;;2.73;;
6983;SDS011;3532;51.118;7.210;2023-10-31T04:48:54;4.00;;;2.50;;
6983;SDS011;3532;51.118;7.210;2023-10-31T04:51:19;9.60;;;3.07;;
6983;SDS011;3532;51.118;7.210;2023-10-31T04:53:45;3.57;;;2.70;;
6983;SDS011;3532;51.118;7.210;2023-10-31T04:56:13;4.87;;;2.77;;
6983;SDS011;3532;51.118;7.210;2023-10-31T04:58:40;4.67;;;2.90;;
6983;SDS011;3532;51.118;7.210;2023-10-31T05:01:09;4.73;;;3.47;;
6983;SDS011;3532;51.118;7.210;2023-10-31T05:03:36;4.23;;;3.23;;
6983;SDS011;3532;51.118;7.210;2023-10-31T05:06:01;4.00;;;3.60;;
6983;SDS011;3532;51.118;7.210;2023-10-31T05:08:26;4.07;;;3.60;;
6983;SDS011;3532;51.118;7.210;2023-10-31T05:10:51;3.90;;;3.07;;
6983;SDS011;3532;51.118;7.210;2023-10-31T05:13:17;3.53;;;3.23;;
6983;SDS011;3532;51.118;7.210;2023-10-31T05:15:42;3.83;;;3.17;;
6983;SDS011;3532;51.118;7.210;2023-10-31T05:18:07;4.30;;;3.90;;
6983;SDS011;3532;51.118;7.210;2023-10-31T05:20:33;4.87;;;4.13;;
6983;SDS011;3532;51.118;7.210;2023-10-31T05:22:58;4.43;;;3.47;;
6983;SDS011;3532;51.118;7.210;2023-10-31T05:25:23;6.10;;;3.57;;
6983;SDS011;3532;51.118;7.210;2023-10-31T05:27:49;4.60;;;4.13;;
6983;SDS011;3532;51.118;7.210;2023-10-31T05:30:14;5.47;;;4.90;;
6983;SDS011;3532;51.118;7.210;2023-10-31T05:32:40;4.77;;;3.97;;
6983;SDS011;3532;51.118;7.210;2023-10-31T05:35:05;6.07;;;4.80;;
6983;SDS011;3532;51.118;7.210;2023-10-31T05:37:30;5.17;;;4.43;;
6983;SDS011;3532;51.118;7.210;2023-10-31T05:39:56;6.83;;;4.13;;
6983;SDS011;3532;51.118;7.210;2023-10-31T05:42:21;4.80;;;4.40;;
6983;SDS011;3532;51.118;7.210;2023-10-31T05:44:48;4.97;;;4.57;;
6983;SDS011;3532;51.118;7.210;2023-10-31T05:47:13;5.10;;;4.70;;
6983;SDS011;3532;51.118;7.210;2023-10-31T05:49:39;5.60;;;4.73;;
6983;SDS011;3532;51.118;7.210;2023-10-31T05:52:04;5.00;;;4.60;;
6983;SDS011;3532;51.118;7.210;2023-10-31T05:54:30;5.23;;;4.70;;
6983;SDS011;3532;51.118;7.210;2023-10-31T05:56:55;4.70;;;4.30;;
6983;SDS011;3532;51.118;7.210;2023-10-31T05:59:20;4.57;;;4.07;;
6983;SDS011;3532;51.118;7.210;2023-10-31T06:01:45;7.10;;;5.40;;
6983;SDS011;3532;51.118;7.210;2023-10-31T06:04:11;5.53;;;4.93;;
6983;SDS011;3532;51.118;7.210;2023-10-31T06:06:39;4.97;;;4.57;;
6983;SDS011;3532;51.118;7.210;2023-10-31T06:09:04;5.23;;;4.77;;
6983;SDS011;3532;51.118;7.210;2023-10-31T06:11:30;4.87;;;4.40;;
6983;SDS011;3532;51.118;7.210;2023-10-31T06:13:55;5.00;;;4.60;;
6983;SDS011;3532;51.118;7.210;2023-10-31T06:16:20;7.17;;;5.67;;
6983;SDS011;3532;51.118;7.210;2023-10-31T06:18:46;5.70;;;5.20;;
6983;SDS011;3532;51.118;7.210;2023-10-31T06:21:11;5.50;;;5.00;;
6983;SDS011;3532;51.118;7.210;2023-10-31T06:23:37;7.20;;;5.43;;
6983;SDS011;3532;51.118;7.210;2023-10-31T06:26:03;6.37;;;5.77;;
6983;SDS011;3532;51.118;7.210;2023-10-31T06:28:28;6.17;;;5.57;;
6983;SDS011;3532;51.118;7.210;2023-10-31T06:30:54;6.13;;;5.53;;
6983;SDS011;3532;51.118;7.210;2023-10-31T06:33:19;5.73;;;5.23;;
6983;SDS011;3532;51.118;7.210;2023-10-31T06:35:44;5.93;;;5.43;;
6983;SDS011;3532;51.118;7.210;2023-10-31T06:38:09;7.57;;;6.73;;
6983;SDS011;3532;51.118;7.210;2023-10-31T06:40:35;6.83;;;6.13;;
6983;SDS011;3532;51.118;7.210;2023-10-31T06:43:01;6.67;;;6.07;;
6983;SDS011;3532;51.118;7.210;2023-10-31T06:45:26;6.87;;;6.10;;
6983;SDS011;3532;51.118;7.210;2023-10-31T06:47:52;7.27;;;6.57;;
6983;SDS011;3532;51.118;7.210;2023-10-31T06:50:17;6.33;;;5.73;;
6983;SDS011;3532;51.118;7.210;2023-10-31T06:52:42;6.60;;;5.60;;
6983;SDS011;3532;51.118;7.210;2023-10-31T06:55:08;7.67;;;6.90;;
6983;SDS011;3532;51.118;7.210;2023-10-31T06:57:33;7.07;;;6.23;;
6983;SDS011;3532;51.118;7.210;2023-10-31T06:59:58;8.73;;;7.83;;
6983;SDS011;3532;51.118;7.210;2023-10-31T07:02:24;8.07;;;7.27;;
6983;SDS011;3532;51.118;7.210;2023-10-31T07:04:50;9.50;;;6.50;;
6983;SDS011;3532;51.118;7.210;2023-10-31T07:07:16;9.13;;;8.33;;
6983;SDS011;3532;51.118;7.210;2023-10-31T07:09:41;7.47;;;6.87;;
6983;SDS011;3532;51.118;7.210;2023-10-31T07:12:06;9.30;;;6.90;;
6983;SDS011;3532;51.118;7.210;2023-10-31T07:14:32;7.97;;;7.33;;
6983;SDS011;3532;51.118;7.210;2023-10-31T07:16:57;8.27;;;6.93;;
6983;SDS011;3532;51.118;7.210;2023-10-31T07:19:22;8.47;;;6.47;;
6983;SDS011;3532;51.118;7.210;2023-10-31T07:21:48;7.23;;;6.53;;
6983;SDS011;3532;51.118;7.210;2023-10-31T07:24:13;7.30;;;6.70;;
6983;SDS011;3532;51.118;7.210;2023-10-31T07:26:38;8.30;;;6.83;;
6983;SDS011;3532;51.118;7.210;2023-10-31T07:29:04;7.10;;;6.40;;
6983;SDS011;3532;51.118;7.210;2023-10-31T07:31:30;7.40;;;6.80;;
6983;SDS011;3532;51.118;7.210;2023-10-31T07:33:55;7.83;;;7.13;;
6983;SDS011;3532;51.118;7.210;2023-10-31T07:36:21;7.80;;;7.00;;
6983;SDS011;3532;51.118;7.210;2023-10-31T07:38:46;11.77;;;7.90;;
6983;SDS011;3532;51.118;7.210;2023-10-31T07:41:11;9.10;;;8.20;;
6983;SDS011;3532;51.118;7.210;2023-10-31T07:43:37;7.97;;;7.27;;
6983;SDS011;3532;51.118;7.210;2023-10-31T07:46:02;7.77;;;7.07;;
6983;SDS011;3532;51.118;7.210;2023-10-31T07:48:27;9.07;;;8.27;;
6983;SDS011;3532;51.118;7.210;2023-10-31T07:50:53;9.57;;;8.67;;
6983;SDS011;3532;51.118;7.210;2023-10-31T07:53:18;10.67;;;8.77;;
6983;SDS011;3532;51.118;7.210;2023-10-31T07:55:43;10.87;;;8.77;;
6983;SDS011;3532;51.118;7.210;2023-10-31T07:58:09;9.10;;;8.27;;
6983;SDS011;3532;51.118;7.210;2023-10-31T08:00:34;8.47;;;7.77;;
6983;SDS011;3532;51.118;7.210;2023-10-31T08:03:00;11.00;;;8.70;;
6983;SDS011;3532;51.118;7.210;2023-10-31T08:05:26;9.33;;;8.33;;
6983;SDS011;3532;51.118;7.210;2023-10-31T08:07:52;10.00;;;9.10;;
6983;SDS011;3532;51.118;7.210;2023-10-31T08:10:17;9.77;;;8.83;;
6983;SDS011;3532;51.118;7.210;2023-10-31T08:12:42;10.13;;;9.13;;
6983;SDS011;3532;51.118;7.210;2023-10-31T08:15:08;11.47;;;8.93;;
6983;SDS011;3532;51.118;7.210;2023-10-31T08:17:34;11.50;;;9.23;;
6983;SDS011;3532;51.118;7.210;2023-10-31T08:20:00;11.97;;;9.73;;
6983;SDS011;3532;51.118;7.210;2023-10-31T08:22:25;11.10;;;10.03;;
6983;SDS011;3532;51.118;7.210;2023-10-31T08:24:50;12.60;;;10.50;;
6983;SDS011;3532;51.118;7.210;2023-10-31T08:27:16;11.57;;;9.30;;
6983;SDS011;3532;51.118;7.210;2023-10-31T08:29:41;10.30;;;9.27;;
6983;SDS011;3532;51.118;7.210;2023-10-31T08:32:06;10.33;;;9.30;;
6983;SDS011;3532;51.118;7.210;2023-10-31T08:34:32;10.20;;;9.20;;
6983;SDS011;3532;51.118;7.210;2023-10-31T08:36:57;10.43;;;8.93;;
6983;SDS011;3532;51.118;7.210;2023-10-31T08:39:24;8.70;;;7.87;;
6983;SDS011;3532;51.118;7.210;2023-10-31T08:41:50;10.27;;;9.37;;
6983;SDS011;3532;51.118;7.210;2023-10-31T08:44:19;9.70;;;8.70;;
6983;SDS011;3532;51.118;7.210;2023-10-31T08:46:44;9.07;;;8.17;;
6983;SDS011;3532;51.118;7.210;2023-10-31T08:49:10;9.23;;;8.33;;
6983;SDS011;3532;51.118;7.210;2023-10-31T08:51:35;10.10;;;8.90;;
6983;SDS011;3532;51.118;7.210;2023-10-31T08:54:00;9.03;;;8.20;;
6983;SDS011;3532;51.118;7.210;2023-10-31T08:56:25;8.37;;;7.63;;
6983;SDS011;3532;51.118;7.210;2023-10-31T08:58:52;8.20;;;7.40;;
6983;SDS011;3532;51.118;7.210;2023-10-31T09:01:17;8.37;;;7.60;;
6983;SDS011;3532;51.118;7.210;2023-10-31T09:03:43;7.50;;;6.90;;
6983;SDS011;3532;51.118;7.210;2023-10-31T09:06:09;10.23;;;7.10;;
6983;SDS011;3532;51.118;7.210;2023-10-31T09:08:35;7.80;;;6.83;;
6983;SDS011;3532;51.118;7.210;2023-10-31T09:11:01;7.70;;;7.00;;
6983;SDS011;3532;51.118;7.210;2023-10-31T09:13:28;8.37;;;6.87;;
6983;SDS011;3532;51.118;7.210;2023-10-31T09:15:53;7.20;;;6.30;;
6983;SDS011;3532;51.118;7.210;2023-10-31T09:18:19;6.87;;;5.67;;
6983;SDS011;3532;51.118;7.210;2023-10-31T09:20:44;6.33;;;5.73;;
6983;SDS011;3532;51.118;7.210;2023-10-31T09:23:09;7.23;;;6.43;;
6983;SDS011;3532;51.118;7.210;2023-10-31T09:25:35;6.37;;;5.50;;
6983;SDS011;3532;51.118;7.210;2023-10-31T09:28:00;5.97;;;5.47;;
6983;SDS011;3532;51.118;7.210;2023-10-31T09:30:25;5.57;;;5.07;;
6983;SDS011;3532;51.118;7.210;2023-10-31T09:32:51;5.90;;;5.30;;
6983;SDS011;3532;51.118;7.210;2023-10-31T09:35:17;4.97;;;4.50;;
6983;SDS011;3532;51.118;7.210;2023-10-31T09:37:42;5.20;;;4.70;;
6983;SDS011;3532;51.118;7.210;2023-10-31T09:40:08;5.27;;;4.77;;
6983;SDS011;3532;51.118;7.210;2023-10-31T09:42:35;5.30;;;4.80;;
6983;SDS011;3532;51.118;7.210;2023-10-31T09:45:00;5.30;;;4.80;;
6983;SDS011;3532;51.118;7.210;2023-10-31T09:47:25;5.10;;;4.60;;
6983;SDS011;3532;51.118;7.210;2023-10-31T09:49:51;4.87;;;4.37;;
6983;SDS011;3532;51.118;7.210;2023-10-31T09:52:16;5.47;;;4.40;;
6983;SDS011;3532;51.118;7.210;2023-10-31T09:54:42;6.37;;;4.60;;
6983;SDS011;3532;51.118;7.210;2023-10-31T09:57:07;6.27;;;4.43;;
6983;SDS011;3532;51.118;7.210;2023-10-31T09:59:34;6.97;;;4.90;;
6983;SDS011;3532;51.118;7.210;2023-10-31T10:01:59;6.43;;;5.83;;
6983;SDS011;3532;51.118;7.210;2023-10-31T10:04:24;6.80;;;4.77;;
6983;SDS011;3532;51.118;7.210;2023-10-31T10:09:25;5.30;;;4.90;;
6983;SDS011;3532;51.118;7.210;2023-10-31T10:11:52;6.07;;;5.37;;
6983;SDS011;3532;51.118;7.210;2023-10-31T10:14:17;5.30;;;4.90;;
6983;SDS011;3532;51.118;7.210;2023-10-31T10:16:43;5.90;;;4.80;;
6983;SDS011;3532;51.118;7.210;2023-10-31T10:19:15;5.70;;;4.90;;
6983;SDS011;3532;51.118;7.210;2023-10-31T10:21:57;6.03;;;5.43;;
6983;SDS011;3532;51.118;7.210;2023-10-31T10:24:23;4.67;;;4.27;;
6983;SDS011;3532;51.118;7.210;2023-10-31T10:26:50;5.43;;;4.47;;
6983;SDS011;3532;51.118;7.210;2023-10-31T10:29:16;5.53;;;4.10;;
6983;SDS011;3532;51.118;7.210;2023-10-31T10:31:42;4.53;;;4.13;;
6983;SDS011;3532;51.118;7.210;2023-10-31T10:34:11;6.93;;;4.70;;
6983;SDS011;3532;51.118;7.210;2023-10-31T10:36:38;4.97;;;4.37;;
6983;SDS011;3532;51.118;7.210;2023-10-31T10:39:03;4.77;;;4.37;;
6983;SDS011;3532;51.118;7.210;2023-10-31T10:41:31;5.93;;;4.70;;
6983;SDS011;3532;51.118;7.210;2023-10-31T10:44:06;5.30;;;4.80;;
6983;SDS011;3532;51.118;7.210;2023-10-31T10:46:35;5.60;;;4.53;;
6983;SDS011;3532;51.118;7.210;2023-10-31T10:49:06;5.33;;;4.00;;
6983;SDS011;3532;51.118;7.210;2023-10-31T10:54:08;4.40;;;4.00;;
6983;SDS011;3532;51.118;7.210;2023-10-31T10:56:39;4.60;;;4.00;;
6983;SDS011;3532;51.118;7.210;2023-10-31T10:59:09;4.57;;;4.23;;
6983;SDS011;3532;51.118;7.210;2023-10-31T11:01:39;3.90;;;3.53;;
6983;SDS011;3532;51.118;7.210;2023-10-31T11:04:06;4.60;;;3.37;;
6983;SDS011;3532;51.118;7.210;2023-10-31T11:06:32;8.27;;;3.43;;
6983;SDS011;3532;51.118;7.210;2023-10-31T11:09:00;4.70;;;3.30;;
6983;SDS011;3532;51.118;7.210;2023-10-31T11:11:25;5.43;;;3.90;;
6983;SDS011;3532;51.118;7.210;2023-10-31T11:13:51;6.83;;;3.97;;
6983;SDS011;3532;51.118;7.210;2023-10-31T11:17:00;6.10;;;3.13;;
6983;SDS011;3532;51.118;7.210;2023-10-31T11:19:09;5.20;;;3.40;;
6983;SDS011;3532;51.118;7.210;2023-10-31T11:21:35;3.40;;;3.10;;
6983;SDS011;3532;51.118;7.210;2023-10-31T11:24:01;4.03;;;3.10;;
6983;SDS011;3532;51.118;7.210;2023-10-31T11:26:27;8.63;;;3.00;;
6983;SDS011;3532;51.118;7.210;2023-10-31T11:29:02;4.43;;;3.17;;
6983;SDS011;3532;51.118;7.210;2023-10-31T11:31:29;4.33;;;3.20;;
6983;SDS011;3532;51.118;7.210;2023-10-31T11:33:55;3.27;;;2.97;;
6983;SDS011;3532;51.118;7.210;2023-10-31T11:36:21;3.30;;;2.90;;
6983;SDS011;3532;51.118;7.210;2023-10-31T11:38:47;3.63;;;3.33;;
6983;SDS011;3532;51.118;7.210;2023-10-31T11:41:12;4.77;;;2.63;;
6983;SDS011;3532;51.118;7.210;2023-10-31T11:46:17;3.47;;;2.67;;
6983;SDS011;3532;51.118;7.210;2023-10-31T11:48:45;3.87;;;2.43;;
6983;SDS011;3532;51.118;7.210;2023-10-31T11:51:17;3.23;;;2.63;;
6983;SDS011;3532;51.118;7.210;2023-10-31T11:53:46;7.30;;;2.70;;
6983;SDS011;3532;51.118;7.210;2023-10-31T11:56:13;3.07;;;2.37;;
6983;SDS011;3532;51.118;7.210;2023-10-31T11:58:39;2.83;;;2.60;;
6983;SDS011;3532;51.118;7.210;2023-10-31T12:01:05;2.60;;;2.30;;
6983;SDS011;3532;51.118;7.210;2023-10-31T12:03:39;2.97;;;1.93;;
6983;SDS011;3532;51.118;7.210;2023-10-31T12:06:06;2.20;;;2.10;;
6983;SDS011;3532;51.118;7.210;2023-10-31T12:08:33;3.10;;;2.20;;
6983;SDS011;3532;51.118;7.210;2023-10-31T12:11:04;3.87;;;1.93;;
6983;SDS011;3532;51.118;7.210;2023-10-31T12:13:37;2.90;;;2.40;;
6983;SDS011;3532;51.118;7.210;2023-10-31T12:16:07;3.40;;;2.30;;
6983;SDS011;3532;51.118;7.210;2023-10-31T12:18:34;3.73;;;2.30;;
6983;SDS011;3532;51.118;7.210;2023-10-31T12:21:00;3.27;;;2.43;;
6983;SDS011;3532;51.118;7.210;2023-10-31T12:23:26;4.00;;;2.60;;
6983;SDS011;3532;51.118;7.210;2023-10-31T12:25:51;3.33;;;2.57;;
6983;SDS011;3532;51.118;7.210;2023-10-31T12:28:20;4.20;;;2.70;;
6983;SDS011;3532;51.118;7.210;2023-10-31T12:30:46;3.77;;;2.20;;
6983;SDS011;3532;51.118;7.210;2023-10-31T12:33:12;3.43;;;1.97;;
6983;SDS011;3532;51.118;7.210;2023-10-31T12:35:38;2.17;;;1.90;;
6983;SDS011;3532;51.118;7.210;2023-10-31T12:38:04;2.80;;;2.10;;
6983;SDS011;3532;51.118;7.210;2023-10-31T12:40:30;2.80;;;2.60;;
6983;SDS011;3532;51.118;7.210;2023-10-31T12:42:55;3.10;;;2.27;;
6983;SDS011;3532;51.118;7.210;2023-10-31T12:45:21;2.50;;;1.97;;
6983;SDS011;3532;51.118;7.210;2023-10-31T12:47:59;3.30;;;1.70;;
6983;SDS011;3532;51.118;7.210;2023-10-31T12:50:29;2.40;;;2.13;;
6983;SDS011;3532;51.118;7.210;2023-10-31T12:52:55;4.00;;;1.83;;
6983;SDS011;3532;51.118;7.210;2023-10-31T12:55:22;2.43;;;2.23;;
6983;SDS011;3532;51.118;7.210;2023-10-31T12:57:49;7.30;;;2.30;;
6983;SDS011;3532;51.118;7.210;2023-10-31T13:00:16;6.20;;;2.07;;
6983;SDS011;3532;51.118;7.210;2023-10-31T13:02:49;3.67;;;2.10;;
6983;SDS011;3532;51.118;7.210;2023-10-31T13:05:17;3.20;;;2.27;;
6983;SDS011;3532;51.118;7.210;2023-10-31T13:07:50;3.67;;;2.07;;
6983;SDS011;3532;51.118;7.210;2023-10-31T13:10:17;2.73;;;2.03;;
6983;SDS011;3532;51.118;7.210;2023-10-31T13:12:46;6.07;;;2.23;;
6983;SDS011;3532;51.118;7.210;2023-10-31T13:15:15;2.33;;;1.90;;
6983;SDS011;3532;51.118;7.210;2023-10-31T13:17:41;2.60;;;2.17;;
6983;SDS011;3532;51.118;7.210;2023-10-31T13:20:09;5.43;;;2.57;;
6983;SDS011;3532;51.118;7.210;2023-10-31T13:22:38;4.27;;;2.70;;
6983;SDS011;3532;51.118;7.210;2023-10-31T13:25:04;2.70;;;2.03;;
6983;SDS011;3532;51.118;7.210;2023-10-31T13:27:32;4.87;;;2.10;;
6983;SDS011;3532;51.118;7.210;2023-10-31T13:30:08;3.33;;;2.00;;
6983;SDS011;3532;51.118;7.210;2023-10-31T13:32:35;2.37;;;1.87;;
6983;SDS011;3532;51.118;7.210;2023-10-31T13:35:01;3.33;;;1.90;;
6983;SDS011;3532;51.118;7.210;2023-10-31T13:37:26;5.50;;;2.20;;
6983;SDS011;3532;51.118;7.210;2023-10-31T13:39:51;3.87;;;2.27;;
6983;SDS011;3532;51.118;7.210;2023-10-31T13:42:17;2.37;;;1.80;;
6983;SDS011;3532;51.118;7.210;2023-10-31T13:44:43;2.23;;;1.80;;
6983;SDS011;3532;51.118;7.210;2023-10-31T13:47:08;2.77;;;2.10;;
6983;SDS011;3532;51.118;7.210;2023-10-31T13:49:34;5.43;;;2.57;;
6983;SDS011;3532;51.118;7.210;2023-10-31T13:52:00;2.53;;;1.93;;
6983;SDS011;3532;51.118;7.210;2023-10-31T13:54:25;2.47;;;1.90;;
6983;SDS011;3532;51.118;7.210;2023-10-31T13:56:51;5.10;;;2.30;;
6983;SDS011;3532;51.118;7.210;2023-10-31T13:59:16;1.90;;;1.67;;
6983;SDS011;3532;51.118;7.210;2023-10-31T14:01:43;4.27;;;2.10;;
6983;SDS011;3532;51.118;7.210;2023-10-31T14:04:09;2.23;;;1.90;;
6983;SDS011;3532;51.118;7.210;2023-10-31T14:06:34;3.03;;;2.07;;
6983;SDS011;3532;51.118;7.210;2023-10-31T14:09:00;3.07;;;1.90;;
6983;SDS011;3532;51.118;7.210;2023-10-31T14:11:29;5.33;;;2.60;;
6983;SDS011;3532;51.118;7.210;2023-10-31T14:13:55;3.23;;;2.20;;
6983;SDS011;3532;51.118;7.210;2023-10-31T14:16:21;3.83;;;2.20;;
6983;SDS011;3532;51.118;7.210;2023-10-31T14:18:46;4.83;;;1.83;;
6983;SDS011;3532;51.118;7.210;2023-10-31T14:21:12;2.20;;;2.00;;
6983;SDS011;3532;51.118;7.210;2023-10-31T14:23:38;4.70;;;1.90;;
6983;SDS011;3532;51.118;7.210;2023-10-31T14:26:03;6.70;;;2.10;;
6983;SDS011;3532;51.118;7.210;2023-10-31T14:28:30;3.37;;;2.13;;
6983;SDS011;3532;51.118;7.210;2023-10-31T14:30:55;3.43;;;2.00;;
6983;SDS011;3532;51.118;7.210;2023-10-31T14:33:20;4.83;;;2.60;;
6983;SDS011;3532;51.118;7.210;2023-10-31T14:35:45;3.20;;;2.00;;
6983;SDS011;3532;51.118;7.210;2023-10-31T14:38:11;3.17;;;2.20;;
6983;SDS011;3532;51.118;7.210;2023-10-31T14:40:36;2.40;;;1.90;;
6983;SDS011;3532;51.118;7.210;2023-10-31T14:43:02;3.37;;;2.33;;
6983;SDS011;3532;51.118;7.210;2023-10-31T14:45:27;4.57;;;2.40;;
6983;SDS011;3532;51.118;7.210;2023-10-31T14:47:52;4.27;;;2.30;;
6983;SDS011;3532;51.118;7.210;2023-10-31T14:50:18;4.30;;;2.10;;
6983;SDS011;3532;51.118;7.210;2023-10-31T14:52:45;6.90;;;2.23;;
6983;SDS011;3532;51.118;7.210;2023-10-31T14:55:11;4.07;;;2.03;;
6983;SDS011;3532;51.118;7.210;2023-10-31T14:57:37;4.03;;;2.10;;
6983;SDS011;3532;51.118;7.210;2023-10-31T15:00:02;3.53;;;2.20;;
6983;SDS011;3532;51.118;7.210;2023-10-31T15:02:28;3.40;;;2.10;;
6983;SDS011;3532;51.118;7.210;2023-10-31T15:04:53;3.87;;;2.43;;
6983;SDS011;3532;51.118;7.210;2023-10-31T15:07:19;3.53;;;2.03;;
6983;SDS011;3532;51.118;7.210;2023-10-31T15:09:44;6.73;;;2.63;;
6983;SDS011;3532;51.118;7.210;2023-10-31T15:12:09;2.90;;;2.00;;
6983;SDS011;3532;51.118;7.210;2023-10-31T15:14:35;5.93;;;1.87;;